createdAt,value
2018-08-20T00:01:46.101Z,82.93
2018-08-20T00:04:15.185Z,83.19
2018-08-20T00:06:54.492Z,82.48
2018-08-20T00:09:36.177Z,82.95
2018-08-20T00:12:06.997Z,83.13
2018-08-20T00:14:36.237Z,83.03
2018-08-20T00:17:05.414Z,84.24
2018-08-20T00:19:34.569Z,83.06
2018-08-20T00:22:03.687Z,84.55
2018-08-20T00:24:32.798Z,84.36
2018-08-20T00:27:03.075Z,84.78
2018-08-20T00:29:35.595Z,85.08
2018-08-20T00:32:04.721Z,85.49
2018-08-20T00:34:34.099Z,84.67
2018-08-20T00:37:04.262Z,84.78
2018-08-20T00:39:33.393Z,85.94
2018-08-20T00:42:02.498Z,85.24
2018-08-20T00:44:31.784Z,85.53
2018-08-20T00:47:02.116Z,85.43
2018-08-20T00:49:31.517Z,86.40
2018-08-20T00:52:01.151Z,86.98
2018-08-20T00:54:30.851Z,87.44
2018-08-20T00:56:59.727Z,87.53
2018-08-20T00:59:28.882Z,87.76
2018-08-20T01:01:58.177Z,87.91
2018-08-20T01:04:27.316Z,88.20
2018-08-20T01:06:56.437Z,88.53
2018-08-20T01:09:25.532Z,88.76
2018-08-20T01:11:54.664Z,89.67
2018-08-20T01:14:24.318Z,89.12
2018-08-20T01:16:53.690Z,89.71
2018-08-20T01:19:23.372Z,91.63
2018-08-20T01:21:52.701Z,91.72
2018-08-20T01:24:21.815Z,91.95
2018-08-20T01:26:50.893Z,92.05
2018-08-20T01:29:20.007Z,91.83
2018-08-20T01:31:49.076Z,90.74
2018-08-20T01:34:18.161Z,91.33
2018-08-20T01:36:47.262Z,91.48
2018-08-20T01:39:16.359Z,89.59
2018-08-20T01:41:45.493Z,87.84
2018-08-20T01:44:14.585Z,87.58
2018-08-20T01:46:44.693Z,89.04
2018-08-20T01:49:14.293Z,88.60
2018-08-20T01:51:43.782Z,89.47
2018-08-20T01:54:13.017Z,88.47
2018-08-20T01:56:42.385Z,87.14
2018-08-20T01:59:11.517Z,86.70
2018-08-20T02:01:42.207Z,87.18
2018-08-20T02:04:13.162Z,87.05
2018-08-20T02:06:44.131Z,86.91
2018-08-20T02:09:15.461Z,87.49
2018-08-20T02:11:45.736Z,88.10
2018-08-20T02:14:19.012Z,87.69
2018-08-20T02:16:49.670Z,88.33
2018-08-20T02:19:23.104Z,88.99
2018-08-20T02:21:55.624Z,89.99
2018-08-20T02:24:25.489Z,90.44
2018-08-20T02:26:54.861Z,90.57
2018-08-20T02:29:23.949Z,91.17
2018-08-20T02:31:53.038Z,91.53
2018-08-20T02:34:22.605Z,91.88
2018-08-20T02:36:51.702Z,91.26
2018-08-20T02:39:21.521Z,92.40
2018-08-20T02:41:50.846Z,93.80
2018-08-20T02:44:20.730Z,93.44
2018-08-20T02:46:52.885Z,94.24
2018-08-20T02:49:22.137Z,93.23
2018-08-20T02:51:51.602Z,93.83
2018-08-20T02:54:20.952Z,94.03
2018-08-20T02:56:50.271Z,94.11
2018-08-20T02:59:19.510Z,94.54
2018-08-20T03:01:48.782Z,94.76
2018-08-20T03:04:18.539Z,95.30
2018-08-20T03:06:47.762Z,95.71
2018-08-20T03:09:17.574Z,96.46
2018-08-20T03:11:47.407Z,97.56
2018-08-20T03:14:16.490Z,97.86
2018-08-20T03:16:45.617Z,98.72
2018-08-20T03:19:14.706Z,99.07
2018-08-20T03:21:43.808Z,99.51
2018-08-20T03:24:12.981Z,99.37
2018-08-20T03:26:42.074Z,98.88
2018-08-20T03:29:11.199Z,99.15
2018-08-20T03:31:40.295Z,100.00
2018-08-20T03:34:09.477Z,100.00
2018-08-20T03:36:38.602Z,100.00
2018-08-20T03:39:08.662Z,100.00
2018-08-20T03:41:37.734Z,100.00
2018-08-20T03:44:06.877Z,100.00
2018-08-20T03:46:36.004Z,100.00
2018-08-20T03:49:05.963Z,100.00
2018-08-20T03:51:35.122Z,100.00
2018-08-20T03:54:04.796Z,100.00
2018-08-20T03:56:33.887Z,100.00
2018-08-20T03:59:02.978Z,100.00
2018-08-20T04:01:32.198Z,100.00
2018-08-20T04:04:01.374Z,100.00
2018-08-20T04:06:30.510Z,100.00
2018-08-20T04:08:59.629Z,100.00
2018-08-20T04:11:28.726Z,100.00
2018-08-20T04:13:58.086Z,100.00
2018-08-20T04:16:27.418Z,100.00
2018-08-20T04:19:00.819Z,100.00
2018-08-20T04:21:30.070Z,100.00
2018-08-20T04:23:58.842Z,100.00
2018-08-20T04:26:27.921Z,100.00
2018-08-20T04:28:57.071Z,100.00
2018-08-20T04:31:26.153Z,100.00
2018-08-20T04:33:55.367Z,100.00
2018-08-20T04:36:24.509Z,100.00
2018-08-20T04:38:53.582Z,100.00
2018-08-20T04:41:22.684Z,100.00
2018-08-20T04:43:52.223Z,100.00
2018-08-20T04:46:21.302Z,100.00
2018-08-20T04:48:50.378Z,100.00
2018-08-20T04:51:19.829Z,100.00
2018-08-20T04:53:48.828Z,100.00
2018-08-20T04:56:17.930Z,100.00
2018-08-20T04:58:47.020Z,100.00
2018-08-20T05:01:16.146Z,99.72
2018-08-20T05:03:45.226Z,99.41
2018-08-20T05:06:15.003Z,98.91
2018-08-20T05:08:44.086Z,96.48
2018-08-20T05:11:13.223Z,92.59
2018-08-20T05:13:42.414Z,87.49
2018-08-20T05:16:11.523Z,84.01
2018-08-20T05:18:40.674Z,81.73
2018-08-20T05:21:09.838Z,79.62
2018-08-20T05:23:39.790Z,76.95
2018-08-20T05:26:09.635Z,73.84
2018-08-20T05:28:39.480Z,71.82
2018-08-20T05:31:09.478Z,69.87
2018-08-20T05:33:39.881Z,66.95
2018-08-20T05:36:10.096Z,64.40
2018-08-20T05:38:39.982Z,64.49
2018-08-20T05:41:09.913Z,65.27
2018-08-20T05:43:39.749Z,64.00
2018-08-20T05:46:09.675Z,64.99
2018-08-20T05:48:39.023Z,63.65
2018-08-20T05:51:08.091Z,63.09
2018-08-20T05:53:37.178Z,62.91
2018-08-20T05:56:06.447Z,62.04
2018-08-20T05:58:36.166Z,59.31
2018-08-20T06:01:05.986Z,57.33
2018-08-20T06:03:35.673Z,56.20
2018-08-20T06:06:04.850Z,54.48
2018-08-20T06:08:33.974Z,52.26
2018-08-20T06:11:03.078Z,53.17
2018-08-20T06:13:32.203Z,55.33
2018-08-20T06:16:01.294Z,53.94
2018-08-20T06:18:30.386Z,52.41
2018-08-20T06:20:59.511Z,50.29
2018-08-20T06:23:28.691Z,48.85
2018-08-20T06:25:57.789Z,49.25
2018-08-20T06:28:26.899Z,47.35
2018-08-20T06:30:56.265Z,45.36
2018-08-20T06:33:26.531Z,43.48
2018-08-20T06:35:55.603Z,43.21
2018-08-20T06:38:24.685Z,41.89
2018-08-20T06:40:53.814Z,42.21
2018-08-20T06:43:22.912Z,42.95
2018-08-20T06:45:51.983Z,42.68
2018-08-20T06:48:21.106Z,42.78
2018-08-20T06:50:50.175Z,40.52
2018-08-20T06:53:19.251Z,40.38
2018-08-20T06:55:48.370Z,38.14
2018-08-20T06:58:17.477Z,36.05
2018-08-20T07:00:46.619Z,37.07
2018-08-20T07:03:16.560Z,35.99
2018-08-20T07:05:45.640Z,34.78
2018-08-20T07:08:14.710Z,35.49
2018-08-20T07:10:48.747Z,36.64
2018-08-20T07:13:33.179Z,36.70
2018-08-20T07:16:02.594Z,37.18
2018-08-20T07:18:32.152Z,37.34
2018-08-20T07:21:01.394Z,35.55
2018-08-20T07:23:31.071Z,37.38
2018-08-20T07:25:59.733Z,38.40
2018-08-20T07:28:28.827Z,39.04
2018-08-20T07:30:57.903Z,36.92
2018-08-20T07:33:26.997Z,39.54
2018-08-20T07:35:56.071Z,38.87
2018-08-20T07:38:25.162Z,37.36
2018-08-20T07:40:54.246Z,37.07
2018-08-20T07:43:23.322Z,36.80
2018-08-20T07:45:52.398Z,36.73
2018-08-20T07:48:21.519Z,36.26
2018-08-20T07:50:50.626Z,35.55
2018-08-20T07:53:19.944Z,33.46
2018-08-20T07:55:49.770Z,33.40
2018-08-20T07:58:19.784Z,32.19
2018-08-20T08:00:49.386Z,32.57
2018-08-20T08:03:23.955Z,34.41
2018-08-20T08:05:53.190Z,35.35
2018-08-20T08:08:22.990Z,31.74
2018-08-20T08:10:52.214Z,31.76
2018-08-20T08:13:21.451Z,31.56
2018-08-20T08:15:50.855Z,31.13
2018-08-20T08:18:20.010Z,30.00
2018-08-20T08:20:49.378Z,27.09
2018-08-20T08:23:18.546Z,27.07
2018-08-20T08:25:48.158Z,26.73
2018-08-20T08:28:17.987Z,25.40
2018-08-20T08:30:47.181Z,24.32
2018-08-20T08:33:16.568Z,25.65
2018-08-20T08:35:45.996Z,26.15
2018-08-20T08:38:15.983Z,25.68
2018-08-20T08:40:45.573Z,25.23
2018-08-20T08:43:14.669Z,25.77
2018-08-20T08:45:43.900Z,25.40
2018-08-20T08:48:13.006Z,24.80
2018-08-20T08:50:42.113Z,24.07
2018-08-20T08:53:11.198Z,23.86
2018-08-20T08:55:40.292Z,24.76
2018-08-20T08:58:09.412Z,23.56
2018-08-20T09:00:38.600Z,23.42
2018-08-20T09:03:07.584Z,23.83
2018-08-20T09:05:36.677Z,22.08
2018-08-20T09:08:05.778Z,22.82
2018-08-20T09:10:34.894Z,22.86
2018-08-20T09:13:03.979Z,24.44
2018-08-20T09:15:33.085Z,22.63
2018-08-20T09:18:02.183Z,24.44
2018-08-20T09:20:31.368Z,23.85
2018-08-20T09:23:00.398Z,22.23
2018-08-20T09:25:29.618Z,23.73
2018-08-20T09:27:58.698Z,23.84
2018-08-20T09:30:27.782Z,24.39
2018-08-20T09:32:56.858Z,26.19
2018-08-20T09:35:25.954Z,23.36
2018-08-20T09:37:55.038Z,23.23
2018-08-20T09:40:24.129Z,25.69
2018-08-20T09:42:53.244Z,27.42
2018-08-20T09:45:22.382Z,24.04
2018-08-20T09:47:51.484Z,25.04
2018-08-20T09:50:20.575Z,23.56
2018-08-20T09:52:49.635Z,22.66
2018-08-20T09:55:18.731Z,24.17
2018-08-20T09:57:48.264Z,25.15
2018-08-20T10:00:22.913Z,23.11
2018-08-20T10:02:52.450Z,22.93
2018-08-20T10:05:21.598Z,22.55
2018-08-20T10:07:50.778Z,23.30
2018-08-20T10:10:19.973Z,25.50
2018-08-20T10:12:49.198Z,24.25
2018-08-20T10:15:18.428Z,20.95
2018-08-20T10:17:47.570Z,24.79
2018-08-20T10:20:18.258Z,23.26
2018-08-20T10:22:47.342Z,21.75
2018-08-20T10:25:16.926Z,23.14
2018-08-20T10:27:46.754Z,23.78
2018-08-20T10:30:15.900Z,22.80
2018-08-20T10:32:44.946Z,26.91
2018-08-20T10:35:14.060Z,28.75
2018-08-20T10:37:43.200Z,27.66
2018-08-20T10:40:12.295Z,25.34
2018-08-20T10:42:41.366Z,24.22
2018-08-20T10:45:16.186Z,22.95
2018-08-20T10:47:46.825Z,21.69
2018-08-20T10:50:17.235Z,20.19
2018-08-20T10:52:48.067Z,22.93
2018-08-20T10:55:17.322Z,22.95
2018-08-20T10:57:46.458Z,24.54
2018-08-20T11:00:16.332Z,25.53
2018-08-20T11:02:44.614Z,21.93
2018-08-20T11:05:16.297Z,20.56
2018-08-20T11:07:45.596Z,24.26
2018-08-20T11:10:15.073Z,22.68
2018-08-20T11:12:44.218Z,21.22
2018-08-20T11:15:13.099Z,19.77
2018-08-20T11:17:42.250Z,22.57
2018-08-20T11:20:14.622Z,24.99
2018-08-20T11:22:43.903Z,21.35
2018-08-20T11:25:13.572Z,22.32
2018-08-20T11:27:42.750Z,19.09
2018-08-20T11:30:13.493Z,18.57
2018-08-20T11:32:42.683Z,19.20
2018-08-20T11:35:12.319Z,20.64
2018-08-20T11:37:41.678Z,18.30
2018-08-20T11:40:11.350Z,20.24
2018-08-20T11:42:40.421Z,22.09
2018-08-20T11:45:13.191Z,22.25
2018-08-20T11:47:42.683Z,22.12
2018-08-20T11:50:11.807Z,18.40
2018-08-20T11:52:40.934Z,17.73
2018-08-20T11:55:10.086Z,18.18
2018-08-20T11:57:39.214Z,19.60
2018-08-20T12:00:10.166Z,19.43
2018-08-20T12:02:39.509Z,19.94
2018-08-20T12:05:09.507Z,21.26
2018-08-20T12:07:38.665Z,21.40
2018-08-20T12:10:09.145Z,19.89
2018-08-20T12:12:38.551Z,20.49
2018-08-20T12:15:10.152Z,23.52
2018-08-20T12:17:39.093Z,25.23
2018-08-20T12:20:08.980Z,27.20
2018-08-20T12:22:38.765Z,25.41
2018-08-20T12:25:10.700Z,23.57
2018-08-20T12:27:39.790Z,21.25
2018-08-20T12:30:10.143Z,21.86
2018-08-20T12:32:39.470Z,20.31
2018-08-20T12:35:09.354Z,21.35
2018-08-20T12:37:39.078Z,19.99
2018-08-20T12:40:08.260Z,18.79
2018-08-20T12:42:37.482Z,18.83
2018-08-20T12:45:07.430Z,21.03
2018-08-20T12:47:36.155Z,25.75
2018-08-20T12:50:05.686Z,28.67
2018-08-20T12:52:34.770Z,30.91
2018-08-20T12:55:03.902Z,31.22
2018-08-20T12:57:33.243Z,28.66
2018-08-20T13:00:03.352Z,29.79
2018-08-20T13:02:32.531Z,31.26
2018-08-20T13:05:01.694Z,30.57
2018-08-20T13:07:30.835Z,27.55
2018-08-20T13:10:00.054Z,25.57
2018-08-20T13:12:29.242Z,24.81
2018-08-20T13:14:58.478Z,24.24
2018-08-20T13:17:27.150Z,25.83
2018-08-20T13:19:56.259Z,21.78
2018-08-20T13:22:25.458Z,23.20
2018-08-20T13:24:54.202Z,23.02
2018-08-20T13:27:23.590Z,22.77
2018-08-20T13:29:52.858Z,21.01
2018-08-20T13:32:22.118Z,21.05
2018-08-20T13:34:51.121Z,23.43
2018-08-20T13:37:20.292Z,21.92
2018-08-20T13:39:49.012Z,19.03
2018-08-20T13:42:18.350Z,19.05
2018-08-20T13:44:47.474Z,20.13
2018-08-20T13:47:16.756Z,19.99
2018-08-20T13:49:45.958Z,23.24
2018-08-20T13:52:15.334Z,23.80
2018-08-20T13:54:44.626Z,24.82
2018-08-20T13:57:13.794Z,28.19
2018-08-20T13:59:43.167Z,27.28
2018-08-20T14:02:12.486Z,26.11
2018-08-20T14:04:41.883Z,26.37
2018-08-20T14:07:11.951Z,25.24
2018-08-20T14:09:41.142Z,25.22
2018-08-20T14:12:10.362Z,23.83
2018-08-20T14:14:39.460Z,20.88
2018-08-20T14:17:08.567Z,21.64
2018-08-20T14:19:37.765Z,23.99
2018-08-20T14:22:07.237Z,26.28
2018-08-20T14:24:36.476Z,27.54
2018-08-20T14:27:05.723Z,27.15
2018-08-20T14:29:34.880Z,25.43
2018-08-20T14:32:03.999Z,25.69
2018-08-20T14:34:33.109Z,23.97
2018-08-20T14:37:02.193Z,25.92
2018-08-20T14:39:31.310Z,27.13
2018-08-20T14:42:00.410Z,29.84
2018-08-20T14:44:29.498Z,27.10
2018-08-20T14:46:58.603Z,30.20
2018-08-20T14:49:27.672Z,31.45
2018-08-20T14:51:56.754Z,27.42
2018-08-20T14:54:25.851Z,28.66
2018-08-20T14:56:54.930Z,29.27
2018-08-20T14:59:24.056Z,27.74
2018-08-20T15:01:53.145Z,27.30
2018-08-20T15:04:22.247Z,27.88
2018-08-20T15:07:02.582Z,27.27
2018-08-20T15:09:32.491Z,27.32
2018-08-20T15:12:01.469Z,29.63
2018-08-20T15:14:31.035Z,32.06
2018-08-20T15:17:00.123Z,31.94
2018-08-20T15:19:29.211Z,31.17
2018-08-20T15:21:58.702Z,30.14
2018-08-20T15:24:27.424Z,32.02
2018-08-20T15:26:56.567Z,33.36
2018-08-20T15:29:25.699Z,33.71
2018-08-20T15:31:54.787Z,33.46
2018-08-20T15:34:23.891Z,33.40
2018-08-20T15:36:53.082Z,32.82
2018-08-20T15:39:22.571Z,32.42
2018-08-20T15:41:51.623Z,32.90
2018-08-20T15:44:20.709Z,32.67
2018-08-20T15:46:49.878Z,32.87
2018-08-20T15:49:21.858Z,34.25
2018-08-20T15:51:50.978Z,32.84
2018-08-20T15:54:20.082Z,33.64
2018-08-20T15:56:49.401Z,35.13
2018-08-20T15:59:18.584Z,33.97
2018-08-20T16:01:47.678Z,34.81
2018-08-20T16:04:16.837Z,36.90
2018-08-20T16:06:45.923Z,37.45
2018-08-20T16:09:15.899Z,38.94
2018-08-20T16:11:45.786Z,38.56
2018-08-20T16:14:14.870Z,38.61
2018-08-20T16:16:43.967Z,39.57
2018-08-20T16:19:13.062Z,39.04
2018-08-20T16:21:43.187Z,39.55
2018-08-20T16:24:12.446Z,39.94
2018-08-20T16:26:41.224Z,39.95
2018-08-20T16:29:10.291Z,39.86
2018-08-20T16:31:40.351Z,40.21
2018-08-20T16:34:09.582Z,41.32
2018-08-20T16:36:38.648Z,40.48
2018-08-20T16:39:11.720Z,40.77
2018-08-20T16:41:41.526Z,40.25
2018-08-20T16:44:11.235Z,40.88
2018-08-20T16:46:40.491Z,40.49
2018-08-20T16:49:10.966Z,41.58
2018-08-20T16:51:40.388Z,41.29
2018-08-20T16:54:09.966Z,42.29
2018-08-20T16:56:39.638Z,41.57
2018-08-20T16:59:07.926Z,43.20
2018-08-20T17:01:37.007Z,43.80
2018-08-20T17:04:21.698Z,43.79
2018-08-20T17:06:51.139Z,43.72
2018-08-20T17:09:21.514Z,43.31
2018-08-20T17:11:50.686Z,44.54
2018-08-20T17:14:20.484Z,43.54
2018-08-20T17:16:50.427Z,43.58
2018-08-20T17:19:20.338Z,43.92
2018-08-20T17:21:49.592Z,44.37
2018-08-20T17:24:29.873Z,44.27
2018-08-20T17:27:01.250Z,44.56
2018-08-20T17:29:30.365Z,45.53
2018-08-20T17:32:03.147Z,46.04
2018-08-20T17:34:32.250Z,46.42
2018-08-20T17:37:01.514Z,46.80
2018-08-20T17:39:30.602Z,47.26
2018-08-20T17:41:59.734Z,47.26
2018-08-20T17:44:28.865Z,47.30
2018-08-20T17:46:57.966Z,47.96
2018-08-20T17:49:29.006Z,48.74
2018-08-20T17:51:58.102Z,49.07
2018-08-20T17:54:30.106Z,49.21
2018-08-20T17:56:59.826Z,49.52
2018-08-20T17:59:29.715Z,49.21
2018-08-20T18:01:58.810Z,49.62
2018-08-20T18:04:27.913Z,49.69
2018-08-20T18:06:57.010Z,49.47
2018-08-20T18:09:26.102Z,49.79
2018-08-20T18:11:56.230Z,50.84
2018-08-20T18:14:26.699Z,51.13
2018-08-20T18:16:55.807Z,51.71
2018-08-20T18:19:25.024Z,52.55
2018-08-20T18:21:54.882Z,52.60
2018-08-20T18:24:23.966Z,53.07
2018-08-20T18:26:56.446Z,52.63
2018-08-20T18:29:26.302Z,53.36
2018-08-20T18:31:58.530Z,53.58
2018-08-20T18:34:27.619Z,53.91
2018-08-20T18:36:56.691Z,54.01
2018-08-20T18:39:25.961Z,54.11
2018-08-20T18:42:01.910Z,54.83
2018-08-20T18:44:31.180Z,55.73
2018-08-20T18:47:00.710Z,56.21
2018-08-20T18:49:30.002Z,55.85
2018-08-20T18:52:12.447Z,56.44
2018-08-20T18:54:49.219Z,56.85
2018-08-20T18:57:25.095Z,56.31
2018-08-20T18:59:56.610Z,56.75
2018-08-20T19:02:41.817Z,56.82
2018-08-20T19:05:13.922Z,58.38
2018-08-20T19:07:43.834Z,57.96
2018-08-20T19:10:19.562Z,57.46
2018-08-20T19:12:48.926Z,57.24
2018-08-20T19:15:27.493Z,58.28
2018-08-20T19:17:56.726Z,57.41
2018-08-20T19:20:25.902Z,58.11
2018-08-20T19:22:55.221Z,58.86
2018-08-20T19:25:24.382Z,59.85
2018-08-20T19:27:53.574Z,59.74
2018-08-20T19:30:24.925Z,60.20
2018-08-20T19:32:54.994Z,61.24
2018-08-20T19:35:24.195Z,61.49
2018-08-20T19:37:53.586Z,61.65
2018-08-20T19:40:22.669Z,62.15
2018-08-20T19:42:53.171Z,63.38
2018-08-20T19:45:27.720Z,64.87
2018-08-20T19:47:57.300Z,64.88
2018-08-20T19:50:26.861Z,65.12
2018-08-20T19:52:56.087Z,66.68
2018-08-20T19:55:25.322Z,65.83
2018-08-20T19:57:54.643Z,65.84
2018-08-20T20:00:23.890Z,65.86
2018-08-20T20:02:53.254Z,66.42
2018-08-20T20:05:22.581Z,66.74
2018-08-20T20:07:57.066Z,67.38
2018-08-20T20:10:26.378Z,67.26
2018-08-20T20:12:56.599Z,68.06
2018-08-20T20:15:26.612Z,67.96
2018-08-20T20:17:56.763Z,68.58
2018-08-20T20:20:26.750Z,68.32
2018-08-20T20:22:56.674Z,68.73
2018-08-20T20:25:26.119Z,69.26
2018-08-20T20:27:55.510Z,69.54
2018-08-20T20:30:24.274Z,68.92
2018-08-20T20:32:53.404Z,70.09
2018-08-20T20:35:23.639Z,70.93
2018-08-20T20:37:53.706Z,71.23
2018-08-20T20:40:23.078Z,71.14
2018-08-20T20:42:52.221Z,70.66
2018-08-20T20:45:22.194Z,71.46
2018-08-20T20:47:50.939Z,72.25
2018-08-20T20:50:20.299Z,72.48
2018-08-20T20:52:49.874Z,72.66
2018-08-20T20:55:19.183Z,71.32
2018-08-20T20:57:48.974Z,71.58
2018-08-20T21:00:19.176Z,72.85
2018-08-20T21:02:49.442Z,73.18
2018-08-20T21:05:19.937Z,73.47
2018-08-20T21:07:50.235Z,74.28
2018-08-20T21:10:19.601Z,73.38
2018-08-20T21:12:48.864Z,73.37
2018-08-20T21:15:17.851Z,74.29
2018-08-20T21:17:46.962Z,75.57
2018-08-20T21:20:16.763Z,75.19
2018-08-20T21:22:46.264Z,76.04
2018-08-20T21:25:16.266Z,75.37
2018-08-20T21:27:46.450Z,75.62
2018-08-20T21:30:16.135Z,75.08
2018-08-20T21:32:45.570Z,75.38
2018-08-20T21:35:14.751Z,74.63
2018-08-20T21:37:43.956Z,75.12
2018-08-20T21:40:17.461Z,72.40
2018-08-20T21:42:46.682Z,73.59
2018-08-20T21:45:15.948Z,70.41
2018-08-20T21:47:45.206Z,70.87
2018-08-20T21:50:14.619Z,71.27
2018-08-20T21:52:43.946Z,73.50
2018-08-20T21:55:13.535Z,72.01
2018-08-20T21:57:46.474Z,72.17
2018-08-20T22:00:18.518Z,71.77
2018-08-20T22:02:49.921Z,71.35
2018-08-20T22:05:19.202Z,72.74
2018-08-20T22:07:49.562Z,71.80
2018-08-20T22:10:18.758Z,73.14
2018-08-20T22:12:47.981Z,72.36
2018-08-20T22:15:16.762Z,72.47
2018-08-20T22:17:46.634Z,71.94
2018-08-20T22:20:15.887Z,72.06
2018-08-20T22:22:45.094Z,72.98
2018-08-20T22:25:16.930Z,73.64
2018-08-20T22:27:52.379Z,74.79
2018-08-20T22:30:21.778Z,76.25
2018-08-20T22:32:51.006Z,76.58
2018-08-20T22:35:26.143Z,78.09
2018-08-20T22:37:55.125Z,77.98
2018-08-20T22:40:24.240Z,79.18
2018-08-20T22:42:58.574Z,79.22
2018-08-20T22:45:27.738Z,80.09
2018-08-20T22:47:56.938Z,80.08
2018-08-20T22:50:26.022Z,80.65
2018-08-20T22:52:55.150Z,81.07
2018-08-20T22:55:24.295Z,82.05
2018-08-20T22:58:14.710Z,83.72
2018-08-20T23:00:43.790Z,83.93
2018-08-20T23:03:12.902Z,83.63
2018-08-20T23:05:42.702Z,84.33
2018-08-20T23:08:16.935Z,84.64
2018-08-20T23:10:46.073Z,85.18
2018-08-20T23:13:15.259Z,85.85
2018-08-20T23:15:44.426Z,86.63
2018-08-20T23:18:13.507Z,87.67
2018-08-20T23:20:42.642Z,88.24
2018-08-20T23:23:11.747Z,88.53
2018-08-20T23:25:40.863Z,88.06
2018-08-20T23:28:09.954Z,87.24
2018-08-20T23:30:41.489Z,87.66
2018-08-20T23:33:10.603Z,88.87
2018-08-20T23:35:40.135Z,89.72
2018-08-20T23:38:09.586Z,89.23
2018-08-20T23:40:38.847Z,90.24
2018-08-20T23:43:08.238Z,89.57
2018-08-20T23:45:37.462Z,90.22
2018-08-20T23:48:06.739Z,90.87
2018-08-20T23:50:35.986Z,90.84
2018-08-20T23:53:05.076Z,90.59
2018-08-20T23:55:34.184Z,90.68
2018-08-20T23:58:03.262Z,90.56
